Time;durP1;ratioP1;P1;durP2;ratioP2;P2;SDS_P1;SDS_P2;PMS_P1;PMS_P2;Temp;Humidity;BMP_temperature;BMP_pressure;BME280_temperature;BME280_humidity;BME280_pressure;Samples;Min_cycle;Max_cycle;Signal;HPM_P1;HPM_P2
2021/07/22 00:00:09;;;;;;;4.90;4.40;;;;;;;;;;5034689;28;20172;-48
2021/07/22 00:02:35;;;;;;;6.00;4.85;;;;;;;;;;5035209;28;20175;-48
2021/07/22 00:05:02;;;;;;;5.55;4.72;;;;;;;;;;5034415;28;20246;-48
2021/07/22 00:07:27;;;;;;;5.05;4.53;;;;;;;;;;5034163;28;20180;-48
2021/07/22 00:09:53;;;;;;;5.30;4.55;;;;;;;;;;5034939;28;20172;-48
2021/07/22 00:12:20;;;;;;;4.80;4.28;;;;;;;;;;5034620;28;20483;-48
2021/07/22 00:14:45;;;;;;;5.57;4.55;;;;;;;;;;5033269;28;20179;-48
2021/07/22 00:17:11;;;;;;;4.78;4.25;;;;;;;;;;5034121;28;20485;-48
2021/07/22 00:19:37;;;;;;;4.60;4.20;;;;;;;;;;5033693;28;20184;-48
2021/07/22 00:22:04;;;;;;;5.15;4.65;;;;;;;;;;5034781;28;20199;-47
2021/07/22 00:24:30;;;;;;;5.97;5.38;;;;;;;;;;5034613;28;20230;-48
2021/07/22 00:26:56;;;;;;;4.88;4.35;;;;;;;;;;5033785;28;20183;-47
2021/07/22 00:29:22;;;;;;;4.95;4.30;;;;;;;;;;5034005;28;20229;-48
2021/07/22 00:31:48;;;;;;;4.75;4.25;;;;;;;;;;5034600;28;20176;-45
2021/07/22 00:34:14;;;;;;;5.30;4.47;;;;;;;;;;5032717;28;20187;-45
2021/07/22 00:36:41;;;;;;;5.25;4.75;;;;;;;;;;5014315;28;20204;-45
2021/07/22 00:39:07;;;;;;;6.30;4.82;;;;;;;;;;5028320;28;20208;-45
2021/07/22 00:41:39;;;;;;;5.85;4.82;;;;;;;;;;5033883;28;20171;-45
2021/07/22 00:44:05;;;;;;;4.82;4.10;;;;;;;;;;5028182;28;20179;-45
2021/07/22 00:46:31;;;;;;;4.65;4.25;;;;;;;;;;5023808;28;20188;-45
2021/07/22 00:48:57;;;;;;;6.68;4.60;;;;;;;;;;5014511;28;20566;-45
2021/07/22 00:51:23;;;;;;;5.20;4.70;;;;;;;;;;5014626;28;20176;-45
2021/07/22 00:53:49;;;;;;;5.30;4.80;;;;;;;;;;5032378;28;20578;-45
2021/07/22 00:56:15;;;;;;;6.00;4.80;;;;;;;;;;5033318;28;20203;-45
2021/07/22 00:58:41;;;;;;;5.68;5.00;;;;;;;;;;5033746;28;20183;-45
2021/07/22 01:01:07;;;;;;;5.57;4.47;;;;;;;;;;5033465;28;20223;-45
2021/07/22 01:03:36;;;;;;;6.13;4.38;;;;;;;;;;5034164;28;20206;-45
2021/07/22 01:06:03;;;;;;;5.78;4.15;;;;;;;;;;5034080;28;20168;-45
2021/07/22 01:08:29;;;;;;;5.63;4.70;;;;;;;;;;5034104;28;20288;-45
2021/07/22 01:10:54;;;;;;;5.20;4.40;;;;;;;;;;5033195;28;20255;-45
2021/07/22 01:13:20;;;;;;;5.07;4.10;;;;;;;;;;5033833;28;20199;-45
2021/07/22 01:15:46;;;;;;;5.25;4.35;;;;;;;;;;5018209;28;20227;-45
2021/07/22 01:18:12;;;;;;;5.30;4.63;;;;;;;;;;5033224;28;20179;-45
2021/07/22 01:20:39;;;;;;;4.57;4.18;;;;;;;;;;5015455;28;20188;-45
2021/07/22 01:23:05;;;;;;;5.45;4.68;;;;;;;;;;5025774;28;20188;-45
2021/07/22 01:25:31;;;;;;;4.82;4.40;;;;;;;;;;5034847;28;20230;-45
2021/07/22 01:27:57;;;;;;;5.15;4.65;;;;;;;;;;5037032;28;20479;-45
2021/07/22 01:30:24;;;;;;;5.00;4.50;;;;;;;;;;5037757;28;20172;-45
2021/07/22 01:32:52;;;;;;;6.07;4.30;;;;;;;;;;5037715;28;20210;-45
2021/07/22 01:35:18;;;;;;;4.68;4.28;;;;;;;;;;5037149;28;20168;-46
2021/07/22 01:37:44;;;;;;;4.65;4.25;;;;;;;;;;5035891;28;20253;-45
2021/07/22 01:40:11;;;;;;;4.57;4.18;;;;;;;;;;5037122;28;20176;-45
2021/07/22 01:42:37;;;;;;;5.60;4.60;;;;;;;;;;5037103;28;20534;-45
2021/07/22 01:45:04;;;;;;;5.10;4.50;;;;;;;;;;5025032;28;20435;-45
2021/07/22 01:47:30;;;;;;;4.55;4.15;;;;;;;;;;5025454;28;20176;-45
2021/07/22 01:49:56;;;;;;;5.18;4.13;;;;;;;;;;5036332;28;20188;-45
2021/07/22 01:52:22;;;;;;;5.70;3.95;;;;;;;;;;5020370;28;20456;-45
2021/07/22 01:54:48;;;;;;;5.15;4.65;;;;;;;;;;5030810;28;20184;-45
2021/07/22 01:57:14;;;;;;;5.68;4.93;;;;;;;;;;5025349;28;20219;-45
2021/07/22 01:59:40;;;;;;;5.03;4.50;;;;;;;;;;5035514;28;20187;-45
2021/07/22 02:02:06;;;;;;;5.10;4.43;;;;;;;;;;5036980;28;20275;-45
2021/07/22 02:04:33;;;;;;;6.50;4.50;;;;;;;;;;5037077;28;20285;-45
2021/07/22 02:06:59;;;;;;;7.38;4.78;;;;;;;;;;5036262;28;20183;-45
2021/07/22 02:09:25;;;;;;;5.20;4.70;;;;;;;;;;5032411;28;20581;-45
2021/07/22 02:11:52;;;;;;;5.15;4.65;;;;;;;;;;5036560;28;20175;-45
2021/07/22 02:14:18;;;;;;;4.65;4.25;;;;;;;;;;5036635;28;20282;-45
2021/07/22 02:16:44;;;;;;;4.72;4.22;;;;;;;;;;5036274;28;20224;-45
2021/07/22 02:19:10;;;;;;;5.07;4.57;;;;;;;;;;5036756;28;20566;-45
2021/07/22 02:21:39;;;;;;;4.88;4.35;;;;;;;;;;5032820;28;20184;-45
2021/07/22 02:24:05;;;;;;;4.78;4.30;;;;;;;;;;5029925;28;20211;-46
2021/07/22 02:26:32;;;;;;;5.47;4.97;;;;;;;;;;5036014;28;20183;-45
2021/07/22 02:28:58;;;;;;;5.50;4.80;;;;;;;;;;5036337;28;20603;-45
2021/07/22 02:31:24;;;;;;;5.10;4.22;;;;;;;;;;5036709;28;20629;-45
2021/07/22 02:33:50;;;;;;;5.25;4.25;;;;;;;;;;5036378;28;20222;-45
2021/07/22 02:36:16;;;;;;;4.70;4.22;;;;;;;;;;5035499;28;20188;-45
2021/07/22 02:38:41;;;;;;;5.05;4.47;;;;;;;;;;5034833;28;20609;-45
2021/07/22 02:41:07;;;;;;;4.95;4.45;;;;;;;;;;5035133;28;20197;-45
2021/07/22 02:43:34;;;;;;;4.82;4.32;;;;;;;;;;5025756;28;20374;-45
2021/07/22 02:46:06;;;;;;;6.00;4.25;;;;;;;;;;5035989;28;20214;-45
2021/07/22 02:48:32;;;;;;;4.80;4.30;;;;;;;;;;5035839;28;20202;-45
2021/07/22 02:51:05;;;;;;;5.22;4.60;;;;;;;;;;5035461;28;20188;-45
2021/07/22 02:53:31;;;;;;;4.70;4.30;;;;;;;;;;5023312;28;20475;-45
2021/07/22 02:55:57;;;;;;;5.22;4.68;;;;;;;;;;5035142;28;20224;-46
2021/07/22 02:58:23;;;;;;;4.68;4.15;;;;;;;;;;5034369;28;20184;-45
2021/07/22 03:00:49;;;;;;;5.07;4.00;;;;;;;;;;5035947;28;20203;-45
2021/07/22 03:03:15;;;;;;;5.85;4.30;;;;;;;;;;5036111;28;20540;-45
2021/07/22 03:05:41;;;;;;;4.57;4.18;;;;;;;;;;5029384;28;20195;-45
2021/07/22 03:08:07;;;;;;;4.95;4.35;;;;;;;;;;5031798;28;20599;-45
2021/07/22 03:10:33;;;;;;;5.93;4.45;;;;;;;;;;5035663;28;20167;-45
2021/07/22 03:12:59;;;;;;;5.47;4.20;;;;;;;;;;5035442;28;20175;-45
2021/07/22 03:15:25;;;;;;;4.30;3.90;;;;;;;;;;5035846;28;20171;-45
2021/07/22 03:17:51;;;;;;;5.13;3.88;;;;;;;;;;5029962;28;20204;-49
2021/07/22 03:20:17;;;;;;;5.22;4.50;;;;;;;;;;5032810;28;20176;-46
2021/07/22 03:22:43;;;;;;;6.22;4.60;;;;;;;;;;5025640;28;20452;-45
2021/07/22 03:25:10;;;;;;;4.57;3.85;;;;;;;;;;5032479;28;20259;-45
2021/07/22 03:27:35;;;;;;;5.28;4.38;;;;;;;;;;5029848;28;20617;-45
2021/07/22 03:30:01;;;;;;;6.32;4.20;;;;;;;;;;5035501;28;20195;-45
2021/07/22 03:32:27;;;;;;;5.90;4.70;;;;;;;;;;5030730;28;20447;-45
2021/07/22 03:34:53;;;;;;;4.57;4.18;;;;;;;;;;5034767;28;20188;-45
2021/07/22 03:37:19;;;;;;;4.15;3.83;;;;;;;;;;5018613;28;20599;-45
2021/07/22 03:39:45;;;;;;;6.05;4.55;;;;;;;;;;5029848;28;20202;-45
2021/07/22 03:42:11;;;;;;;4.88;4.30;;;;;;;;;;5030122;28;20194;-45
2021/07/22 03:44:37;;;;;;;5.28;3.72;;;;;;;;;;5035221;28;20183;-45
2021/07/22 03:47:04;;;;;;;4.60;4.13;;;;;;;;;;5023573;28;20187;-45
2021/07/22 03:49:30;;;;;;;5.55;4.18;;;;;;;;;;5028126;28;20555;-46
2021/07/22 03:51:58;;;;;;;4.82;3.88;;;;;;;;;;5034640;28;20202;-45
2021/07/22 03:54:24;;;;;;;5.70;4.63;;;;;;;;;;5034565;28;20266;-45
2021/07/22 03:56:51;;;;;;;4.38;3.97;;;;;;;;;;5034011;28;20203;-45
2021/07/22 03:59:17;;;;;;;4.70;3.63;;;;;;;;;;5034661;28;20298;-45
2021/07/22 04:01:44;;;;;;;8.13;4.72;;;;;;;;;;5034069;28;20204;-45
2021/07/22 04:04:10;;;;;;;19.35;7.05;;;;;;;;;;5031985;28;20186;-45
2021/07/22 04:06:36;;;;;;;12.20;6.00;;;;;;;;;;5034050;28;20179;-45
2021/07/22 04:09:03;;;;;;;22.45;7.65;;;;;;;;;;5034549;28;20187;-45
2021/07/22 04:11:29;;;;;;;20.75;7.45;;;;;;;;;;5034514;28;20449;-45
2021/07/22 04:13:55;;;;;;;18.63;6.97;;;;;;;;;;5034628;28;20191;-45
2021/07/22 04:16:21;;;;;;;15.88;6.03;;;;;;;;;;5034009;28;20213;-45
2021/07/22 04:18:48;;;;;;;17.30;6.80;;;;;;;;;;5034536;28;20219;-45
2021/07/22 04:21:14;;;;;;;14.15;6.80;;;;;;;;;;5034809;28;20512;-45
2021/07/22 04:23:41;;;;;;;13.25;6.28;;;;;;;;;;5034400;28;20164;-45
2021/07/22 04:26:07;;;;;;;15.57;6.28;;;;;;;;;;5033934;28;20614;-45
2021/07/22 04:28:33;;;;;;;13.90;5.90;;;;;;;;;;5034332;28;20187;-45
2021/07/22 04:30:59;;;;;;;10.80;5.45;;;;;;;;;;5034226;28;20172;-45
2021/07/22 04:33:25;;;;;;;11.55;5.53;;;;;;;;;;5034522;28;20176;-45
2021/07/22 04:35:55;;;;;;;10.00;5.20;;;;;;;;;;5033769;28;20210;-45
2021/07/22 04:38:21;;;;;;;7.25;5.00;;;;;;;;;;5034103;28;20203;-45
2021/07/22 04:40:47;;;;;;;10.90;5.07;;;;;;;;;;5034241;28;20759;-45
2021/07/22 04:43:13;;;;;;;7.88;5.13;;;;;;;;;;5034279;28;20214;-45
2021/07/22 04:45:39;;;;;;;6.45;4.57;;;;;;;;;;5034024;28;20203;-45
2021/07/22 04:48:05;;;;;;;6.18;4.32;;;;;;;;;;5034218;28;20168;-45
2021/07/22 04:50:31;;;;;;;7.18;5.00;;;;;;;;;;5033885;28;20187;-45
2021/07/22 04:52:57;;;;;;;9.65;4.47;;;;;;;;;;5034421;28;20183;-45
2021/07/22 04:55:23;;;;;;;6.03;4.40;;;;;;;;;;5034212;28;20250;-45
2021/07/22 04:57:57;;;;;;;5.40;4.63;;;;;;;;;;5033495;28;20286;-45
2021/07/22 05:00:23;;;;;;;5.30;3.90;;;;;;;;;;5035162;28;20175;-45
2021/07/22 05:02:49;;;;;;;6.95;4.43;;;;;;;;;;5038354;28;20267;-45
2021/07/22 05:05:15;;;;;;;9.15;4.80;;;;;;;;;;5038502;28;20255;-45
2021/07/22 05:07:41;;;;;;;6.43;4.40;;;;;;;;;;5036798;28;20187;-45
2021/07/22 05:10:08;;;;;;;4.88;4.28;;;;;;;;;;5037270;28;20184;-45
2021/07/22 05:12:34;;;;;;;4.72;4.18;;;;;;;;;;5037115;28;20212;-45
2021/07/22 05:15:00;;;;;;;6.57;4.40;;;;;;;;;;5037570;28;20192;-45
2021/07/22 05:17:26;;;;;;;5.25;4.47;;;;;;;;;;5035938;28;20207;-45
2021/07/22 05:19:52;;;;;;;7.68;4.70;;;;;;;;;;5037458;28;20186;-45
2021/07/22 05:22:21;;;;;;;6.63;5.00;;;;;;;;;;5037806;28;20184;-45
2021/07/22 05:24:47;;;;;;;5.10;4.60;;;;;;;;;;5037780;28;20218;-45
2021/07/22 05:27:16;;;;;;;8.60;4.82;;;;;;;;;;5036285;28;20211;-45
2021/07/22 05:29:42;;;;;;;7.88;4.28;;;;;;;;;;5037896;28;20206;-45
2021/07/22 05:32:08;;;;;;;10.30;4.78;;;;;;;;;;5035366;28;20547;-47
2021/07/22 05:34:34;;;;;;;7.00;4.70;;;;;;;;;;5023252;28;20183;-48
2021/07/22 05:37:00;;;;;;;6.85;4.53;;;;;;;;;;5041485;28;20209;-47
2021/07/22 05:39:26;;;;;;;11.25;4.93;;;;;;;;;;5037810;28;20187;-46
2021/07/22 05:41:52;;;;;;;9.13;4.75;;;;;;;;;;5037101;28;20226;-45
2021/07/22 05:44:18;;;;;;;6.13;4.57;;;;;;;;;;5037305;28;20176;-47
2021/07/22 05:46:44;;;;;;;7.40;5.03;;;;;;;;;;5036806;28;20180;-45
2021/07/22 05:49:10;;;;;;;8.60;5.38;;;;;;;;;;5037609;28;20175;-47
2021/07/22 05:51:37;;;;;;;5.60;4.60;;;;;;;;;;5036894;28;20230;-48
2021/07/22 05:54:03;;;;;;;7.25;5.30;;;;;;;;;;5036596;28;20184;-48
2021/07/22 05:56:29;;;;;;;8.07;5.00;;;;;;;;;;5036255;28;20774;-48
2021/07/22 05:58:55;;;;;;;6.88;4.80;;;;;;;;;;5036286;28;20186;-47
2021/07/22 06:01:22;;;;;;;10.52;5.40;;;;;;;;;;5037113;28;20513;-47
2021/07/22 06:03:48;;;;;;;7.18;4.78;;;;;;;;;;5035478;28;20214;-47
2021/07/22 06:06:14;;;;;;;7.47;4.85;;;;;;;;;;5036065;28;20175;-47
2021/07/22 06:08:40;;;;;;;5.45;4.50;;;;;;;;;;5036955;28;20254;-47
2021/07/22 06:11:07;;;;;;;7.13;4.78;;;;;;;;;;5035228;28;20611;-47
2021/07/22 06:13:33;;;;;;;5.40;4.90;;;;;;;;;;5036143;28;20192;-47
2021/07/22 06:16:01;;;;;;;6.53;5.60;;;;;;;;;;5036230;28;20283;-47
2021/07/22 06:18:27;;;;;;;8.85;4.85;;;;;;;;;;5036787;28;20168;-47
2021/07/22 06:20:53;;;;;;;8.20;4.90;;;;;;;;;;5036852;28;20172;-47
2021/07/22 06:23:19;;;;;;;5.70;5.15;;;;;;;;;;5036435;28;20247;-47
2021/07/22 06:25:45;;;;;;;7.60;4.88;;;;;;;;;;5035372;28;20183;-47
2021/07/22 06:28:11;;;;;;;10.43;5.20;;;;;;;;;;5036528;28;20180;-47
2021/07/22 06:30:37;;;;;;;6.85;5.30;;;;;;;;;;5036571;28;20172;-47
2021/07/22 06:33:03;;;;;;;8.73;5.15;;;;;;;;;;5026477;28;20181;-47
2021/07/22 06:35:29;;;;;;;7.47;4.80;;;;;;;;;;5026576;28;20191;-47
2021/07/22 06:37:55;;;;;;;7.93;4.68;;;;;;;;;;5035363;28;20462;-47
2021/07/22 06:40:21;;;;;;;7.47;4.85;;;;;;;;;;5035435;28;20168;-47
2021/07/22 06:42:47;;;;;;;7.88;5.13;;;;;;;;;;5035918;28;20509;-47
2021/07/22 06:45:13;;;;;;;5.60;5.10;;;;;;;;;;5036232;28;20172;-47
2021/07/22 06:47:39;;;;;;;8.65;5.20;;;;;;;;;;5035216;28;20599;-47
2021/07/22 06:50:07;;;;;;;6.63;5.28;;;;;;;;;;5035570;28;20239;-47
2021/07/22 06:52:35;;;;;;;7.57;4.70;;;;;;;;;;5034193;28;20214;-47
2021/07/22 06:55:01;;;;;;;6.72;4.65;;;;;;;;;;5036189;28;20233;-47
2021/07/22 06:57:27;;;;;;;6.65;5.38;;;;;;;;;;5032885;28;20211;-47
2021/07/22 06:59:53;;;;;;;6.85;5.20;;;;;;;;;;5034532;28;20199;-47
2021/07/22 07:02:19;;;;;;;7.13;5.05;;;;;;;;;;5034337;28;20199;-47
2021/07/22 07:04:44;;;;;;;5.80;5.10;;;;;;;;;;5034482;28;20176;-47
2021/07/22 07:07:10;;;;;;;7.57;4.90;;;;;;;;;;5033684;28;20172;-47
2021/07/22 07:09:37;;;;;;;7.20;4.93;;;;;;;;;;5034111;28;20172;-47
2021/07/22 07:12:03;;;;;;;6.00;4.95;;;;;;;;;;5035412;28;20218;-47
2021/07/22 07:14:29;;;;;;;5.97;4.60;;;;;;;;;;5035626;28;20209;-47
2021/07/22 07:16:54;;;;;;;5.55;4.78;;;;;;;;;;5035186;28;20595;-47
2021/07/22 07:19:20;;;;;;;5.75;5.10;;;;;;;;;;5035626;28;20172;-47
2021/07/22 07:21:46;;;;;;;6.15;5.20;;;;;;;;;;5035114;28;20175;-47
2021/07/22 07:24:12;;;;;;;5.65;4.78;;;;;;;;;;5035311;28;20176;-47
2021/07/22 07:26:38;;;;;;;6.13;5.53;;;;;;;;;;5035145;28;20184;-47
2021/07/22 07:29:04;;;;;;;7.93;5.53;;;;;;;;;;5035349;28;20214;-47
2021/07/22 07:31:30;;;;;;;8.82;5.20;;;;;;;;;;5035512;28;20202;-47
2021/07/22 07:33:56;;;;;;;5.60;5.05;;;;;;;;;;5035120;28;20586;-47
2021/07/22 07:36:22;;;;;;;6.45;5.18;;;;;;;;;;5034436;28;20494;-47
2021/07/22 07:38:48;;;;;;;5.53;4.93;;;;;;;;;;5035233;28;20207;-47
2021/07/22 07:41:14;;;;;;;10.88;5.40;;;;;;;;;;5035431;28;20233;-47
2021/07/22 07:43:40;;;;;;;7.43;5.20;;;;;;;;;;5035071;28;20168;-47
2021/07/22 07:46:06;;;;;;;6.88;5.10;;;;;;;;;;5033766;28;20574;-47
2021/07/22 07:48:32;;;;;;;8.75;5.05;;;;;;;;;;5034800;28;20176;-47
2021/07/22 07:50:59;;;;;;;6.60;5.22;;;;;;;;;;5033400;28;20195;-47
2021/07/22 07:53:25;;;;;;;7.55;5.70;;;;;;;;;;5034423;28;20451;-48
2021/07/22 07:55:51;;;;;;;7.00;5.85;;;;;;;;;;5033898;28;20455;-47
2021/07/22 07:58:17;;;;;;;8.25;5.07;;;;;;;;;;5034711;28;20263;-48
2021/07/22 08:00:43;;;;;;;9.88;5.78;;;;;;;;;;5034137;28;20781;-48
2021/07/22 08:03:16;;;;;;;8.35;5.40;;;;;;;;;;5034533;28;20176;-48
2021/07/22 08:05:42;;;;;;;9.02;5.55;;;;;;;;;;5033473;28;20172;-48
2021/07/22 08:08:08;;;;;;;8.13;5.05;;;;;;;;;;5033873;28;20184;-48
2021/07/22 08:10:34;;;;;;;10.07;5.72;;;;;;;;;;5034520;28;20271;-48
2021/07/22 08:13:05;;;;;;;9.10;5.43;;;;;;;;;;5034066;28;20510;-48
2021/07/22 08:15:31;;;;;;;7.38;5.45;;;;;;;;;;5028255;28;20238;-48
2021/07/22 08:17:57;;;;;;;8.15;5.18;;;;;;;;;;5026433;28;20215;-48
2021/07/22 08:20:23;;;;;;;10.88;5.97;;;;;;;;;;5034183;28;20194;-48
2021/07/22 08:22:49;;;;;;;10.20;5.00;;;;;;;;;;5034303;28;20180;-48
2021/07/22 08:25:15;;;;;;;8.05;5.38;;;;;;;;;;5023271;28;20225;-48
2021/07/22 08:27:41;;;;;;;9.77;5.40;;;;;;;;;;5019415;28;20587;-48
2021/07/22 08:30:08;;;;;;;5.65;4.70;;;;;;;;;;5032118;28;20191;-48
2021/07/22 08:32:34;;;;;;;5.93;5.28;;;;;;;;;;5029304;28;20192;-48
2021/07/22 08:35:00;;;;;;;6.97;5.03;;;;;;;;;;5032146;28;20225;-48
2021/07/22 08:37:26;;;;;;;7.72;5.50;;;;;;;;;;5023131;28;20539;-48
2021/07/22 08:39:56;;;;;;;7.90;5.25;;;;;;;;;;5033116;28;20183;-48
2021/07/22 08:42:23;;;;;;;6.50;4.68;;;;;;;;;;5034243;28;20218;-48
2021/07/22 08:44:49;;;;;;;6.95;4.97;;;;;;;;;;5033194;28;20555;-48
2021/07/22 08:47:16;;;;;;;6.05;4.57;;;;;;;;;;5031936;28;20228;-48
2021/07/22 08:49:42;;;;;;;6.57;5.22;;;;;;;;;;5031626;28;20540;-48
2021/07/22 08:52:11;;;;;;;6.32;4.90;;;;;;;;;;5026336;28;20206;-48
2021/07/22 08:54:38;;;;;;;6.57;4.78;;;;;;;;;;5032143;28;20559;-48
2021/07/22 08:57:23;;;;;;;7.35;4.70;;;;;;;;;;5020188;28;20203;-48
2021/07/22 08:59:49;;;;;;;9.25;5.18;;;;;;;;;;5037683;28;20175;-46
2021/07/22 09:02:19;;;;;;;6.43;4.70;;;;;;;;;;5037259;28;20507;-45
2021/07/22 09:04:49;;;;;;;9.23;4.72;;;;;;;;;;5027574;28;20201;-45
2021/07/22 09:07:16;;;;;;;6.95;5.00;;;;;;;;;;5026200;28;20180;-45
2021/07/22 09:09:42;;;;;;;6.45;4.72;;;;;;;;;;5034204;28;20180;-45
2021/07/22 09:12:08;;;;;;;6.07;4.93;;;;;;;;;;5029549;28;20286;-45
2021/07/22 09:14:35;;;;;;;7.25;4.75;;;;;;;;;;5033706;28;20191;-45
2021/07/22 09:17:01;;;;;;;6.30;4.95;;;;;;;;;;5028988;28;20263;-45
2021/07/22 09:19:31;;;;;;;6.28;5.15;;;;;;;;;;5033927;28;20172;-45
2021/07/22 09:21:57;;;;;;;6.57;5.05;;;;;;;;;;5031575;28;20179;-46
2021/07/22 09:24:23;;;;;;;5.72;4.50;;;;;;;;;;5019984;28;20179;-48
2021/07/22 09:26:53;;;;;;;6.15;4.75;;;;;;;;;;5025375;28;20219;-48
2021/07/22 09:29:19;;;;;;;5.82;4.65;;;;;;;;;;5025353;28;20207;-48
2021/07/22 09:31:48;;;;;;;7.70;4.60;;;;;;;;;;5032984;28;20188;-48
2021/07/22 09:34:23;;;;;;;5.85;4.18;;;;;;;;;;5032171;28;20192;-48
2021/07/22 09:36:49;;;;;;;5.60;4.68;;;;;;;;;;5031677;28;20203;-48
2021/07/22 09:39:26;;;;;;;5.65;4.50;;;;;;;;;;5032617;28;20187;-48
2021/07/22 09:41:57;;;;;;;5.25;4.65;;;;;;;;;;5032674;28;20418;-49
2021/07/22 09:44:38;;;;;;;5.82;4.75;;;;;;;;;;5032881;28;20251;-48
2021/07/22 09:47:06;;;;;;;8.38;4.70;;;;;;;;;;5035511;28;20179;-48
2021/07/22 09:49:33;;;;;;;6.40;5.20;;;;;;;;;;5036034;28;20259;-48
2021/07/22 09:52:01;;;;;;;5.63;4.63;;;;;;;;;;5036229;28;20192;-48
2021/07/22 09:54:33;;;;;;;5.38;4.82;;;;;;;;;;5037244;28;20254;-48
2021/07/22 09:57:01;;;;;;;8.40;5.32;;;;;;;;;;5036579;28;20207;-48
2021/07/22 09:59:28;;;;;;;8.25;5.10;;;;;;;;;;5035848;28;20171;-48
2021/07/22 10:01:57;;;;;;;6.13;5.22;;;;;;;;;;5035550;28;20168;-48
2021/07/22 10:04:23;;;;;;;6.22;4.72;;;;;;;;;;5037245;28;20799;-48
2021/07/22 10:06:50;;;;;;;5.63;4.75;;;;;;;;;;5029909;28;20215;-48
2021/07/22 10:09:20;;;;;;;6.80;5.90;;;;;;;;;;5027204;28;20184;-48
2021/07/22 10:11:47;;;;;;;6.60;5.20;;;;;;;;;;5026637;28;20462;-48
2021/07/22 10:14:15;;;;;;;7.97;5.50;;;;;;;;;;5037018;28;20455;-48
2021/07/22 10:16:41;;;;;;;5.30;4.82;;;;;;;;;;5036876;28;20755;-48
2021/07/22 10:19:08;;;;;;;6.65;5.45;;;;;;;;;;5036060;28;20176;-48
2021/07/22 10:21:33;;;;;;;9.10;5.60;;;;;;;;;;5033417;28;20512;-48
2021/07/22 10:24:00;;;;;;;6.72;4.88;;;;;;;;;;5036542;28;20263;-48
2021/07/22 10:26:26;;;;;;;6.25;5.65;;;;;;;;;;5036437;28;20547;-48
2021/07/22 10:28:52;;;;;;;6.88;5.53;;;;;;;;;;5035895;28;20175;-48
2021/07/22 10:31:19;;;;;;;6.00;5.13;;;;;;;;;;5035085;28;20612;-48
2021/07/22 10:33:45;;;;;;;7.95;5.53;;;;;;;;;;5030075;28;20267;-48
2021/07/22 10:36:12;;;;;;;7.82;5.40;;;;;;;;;;5027773;28;20199;-48
2021/07/22 10:38:43;;;;;;;7.60;5.30;;;;;;;;;;5020198;28;20635;-48
2021/07/22 10:41:09;;;;;;;8.75;5.45;;;;;;;;;;5016438;28;20165;-48
2021/07/22 10:43:46;;;;;;;8.85;5.65;;;;;;;;;;5036087;28;20207;-48
2021/07/22 10:46:15;;;;;;;9.38;6.38;;;;;;;;;;5034618;28;20184;-48
2021/07/22 10:48:42;;;;;;;6.80;6.10;;;;;;;;;;5032704;28;20172;-48
2021/07/22 10:51:11;;;;;;;6.72;5.95;;;;;;;;;;5033188;28;20193;-48
2021/07/22 10:53:40;;;;;;;9.13;6.20;;;;;;;;;;5022524;28;20308;-48
2021/07/22 10:56:07;;;;;;;7.90;6.32;;;;;;;;;;5028598;28;20192;-48
2021/07/22 10:58:33;;;;;;;6.68;5.85;;;;;;;;;;5033203;28;20160;-48
2021/07/22 11:01:00;;;;;;;6.50;5.75;;;;;;;;;;5033942;28;20195;-48
2021/07/22 11:03:35;;;;;;;9.52;6.30;;;;;;;;;;5034161;28;20188;-48
2021/07/22 11:06:02;;;;;;;7.88;6.40;;;;;;;;;;5036224;28;20191;-48
2021/07/22 11:08:29;;;;;;;7.85;6.32;;;;;;;;;;5029555;28;20207;-48
2021/07/22 11:10:55;;;;;;;8.02;5.85;;;;;;;;;;5017585;28;20250;-48
2021/07/22 11:13:36;;;;;;;7.65;6.07;;;;;;;;;;5014533;28;20187;-48
2021/07/22 11:16:03;;;;;;;8.82;6.13;;;;;;;;;;5015163;28;20216;-48
2021/07/22 11:18:44;;;;;;;7.68;6.15;;;;;;;;;;5018221;28;20168;-48
2021/07/22 11:21:11;;;;;;;7.78;6.60;;;;;;;;;;5035100;28;20233;-48
2021/07/22 11:23:38;;;;;;;8.40;6.53;;;;;;;;;;5024698;28;20196;-48
2021/07/22 11:26:04;;;;;;;6.80;6.10;;;;;;;;;;5015530;28;20165;-48
2021/07/22 11:28:30;;;;;;;7.82;6.55;;;;;;;;;;5025677;28;20502;-48
2021/07/22 11:31:13;;;;;;;7.65;6.75;;;;;;;;;;5029045;28;20541;-48
2021/07/22 11:33:40;;;;;;;7.75;6.28;;;;;;;;;;5015720;28;20192;-48
2021/07/22 11:36:32;;;;;;;7.60;6.47;;;;;;;;;;5015691;28;20160;-48
2021/07/22 11:38:58;;;;;;;7.47;6.78;;;;;;;;;;5024973;28;20214;-48
2021/07/22 11:41:24;;;;;;;7.82;6.70;;;;;;;;;;5033413;28;20498;-48
2021/07/22 11:43:58;;;;;;;9.40;6.97;;;;;;;;;;5033604;28;20234;-48
2021/07/22 11:46:36;;;;;;;7.57;6.55;;;;;;;;;;5020930;28;20199;-48
2021/07/22 11:49:09;;;;;;;9.23;6.60;;;;;;;;;;5023734;28;20198;-48
2021/07/22 11:51:36;;;;;;;8.52;6.88;;;;;;;;;;5035103;28;20189;-48
2021/07/22 11:54:02;;;;;;;8.57;6.85;;;;;;;;;;5034753;28;20972;-48
2021/07/22 11:56:32;;;;;;;9.60;6.30;;;;;;;;;;5035013;28;20472;-48
2021/07/22 11:58:58;;;;;;;8.85;6.60;;;;;;;;;;5033901;28;20587;-48
2021/07/22 12:01:24;;;;;;;8.60;6.00;;;;;;;;;;5017849;28;20292;-48
2021/07/22 12:03:50;;;;;;;8.23;6.20;;;;;;;;;;5015109;28;20429;-48
2021/07/22 12:06:26;;;;;;;7.78;6.03;;;;;;;;;;5015080;28;20200;-48
2021/07/22 12:09:10;;;;;;;10.10;6.30;;;;;;;;;;5015943;28;20773;-48
2021/07/22 12:11:46;;;;;;;6.85;5.95;;;;;;;;;;5014753;28;20168;-48
2021/07/22 12:14:13;;;;;;;7.47;6.30;;;;;;;;;;5018968;28;20230;-48
2021/07/22 12:16:39;;;;;;;10.65;6.22;;;;;;;;;;5014781;28;20199;-48
2021/07/22 12:19:06;;;;;;;8.73;6.38;;;;;;;;;;5015480;28;20185;-48
2021/07/22 12:21:32;;;;;;;8.60;6.70;;;;;;;;;;5016051;28;20204;-48
2021/07/22 12:24:19;;;;;;;8.15;6.60;;;;;;;;;;5014816;28;20172;-48
2021/07/22 12:26:45;;;;;;;9.05;7.03;;;;;;;;;;5030983;28;20188;-48
2021/07/22 12:29:17;;;;;;;9.40;6.00;;;;;;;;;;5025415;28;20185;-48
2021/07/22 12:31:43;;;;;;;7.20;6.15;;;;;;;;;;5015960;28;20165;-48
2021/07/22 12:34:10;;;;;;;7.68;6.55;;;;;;;;;;5028213;28;20207;-48
2021/07/22 12:36:37;;;;;;;8.35;6.75;;;;;;;;;;5026535;28;20207;-48
2021/07/22 12:39:09;;;;;;;8.80;6.85;;;;;;;;;;5033923;28;20642;-48
2021/07/22 12:41:35;;;;;;;9.07;5.95;;;;;;;;;;5014726;28;20195;-48
2021/07/22 12:44:01;;;;;;;9.98;6.40;;;;;;;;;;5015407;28;20184;-48
2021/07/22 12:46:30;;;;;;;7.18;5.90;;;;;;;;;;5026635;28;20180;-48
2021/07/22 12:48:57;;;;;;;9.20;6.13;;;;;;;;;;5014263;28;20164;-48
2021/07/22 12:51:23;;;;;;;7.90;6.18;;;;;;;;;;5021201;28;20238;-48
2021/07/22 12:53:50;;;;;;;7.05;6.28;;;;;;;;;;5033454;28;20495;-48
2021/07/22 12:56:16;;;;;;;7.70;6.40;;;;;;;;;;5018849;28;20208;-48
2021/07/22 12:58:42;;;;;;;8.55;6.63;;;;;;;;;;5020834;28;20188;-48
2021/07/22 13:01:11;;;;;;;9.60;7.07;;;;;;;;;;5014631;28;20185;-48
2021/07/22 13:03:37;;;;;;;9.05;6.30;;;;;;;;;;5016900;28;20173;-48
2021/07/22 13:06:04;;;;;;;9.00;5.90;;;;;;;;;;5023860;28;20200;-48
2021/07/22 13:08:31;;;;;;;8.00;6.18;;;;;;;;;;5013968;28;20172;-48
2021/07/22 13:10:57;;;;;;;7.07;6.20;;;;;;;;;;5031104;28;20570;-49
2021/07/22 13:13:23;;;;;;;7.97;6.32;;;;;;;;;;5033645;28;20223;-48
2021/07/22 13:15:49;;;;;;;9.65;6.93;;;;;;;;;;5034029;28;20172;-48
2021/07/22 13:18:16;;;;;;;8.50;6.75;;;;;;;;;;5033397;28;20358;-48
2021/07/22 13:20:42;;;;;;;9.63;6.43;;;;;;;;;;5030905;28;20173;-48
2021/07/22 13:23:08;;;;;;;7.80;6.60;;;;;;;;;;5028224;28;20187;-48
2021/07/22 13:25:34;;;;;;;8.15;6.78;;;;;;;;;;5034778;28;20602;-48
2021/07/22 13:28:00;;;;;;;7.85;6.60;;;;;;;;;;5033621;28;20184;-48
2021/07/22 13:30:26;;;;;;;15.80;7.22;;;;;;;;;;5032087;28;20191;-48
2021/07/22 13:32:53;;;;;;;38.05;10.75;;;;;;;;;;5025761;28;20184;-48
2021/07/22 13:35:26;;;;;;;37.50;12.07;;;;;;;;;;5034328;28;20183;-48
2021/07/22 13:37:53;;;;;;;85.18;16.52;;;;;;;;;;5030349;28;20337;-48
2021/07/22 13:40:21;;;;;;;59.08;15.68;;;;;;;;;;5034655;28;20176;-48
2021/07/22 13:42:47;;;;;;;59.20;14.95;;;;;;;;;;5035065;28;20435;-48
2021/07/22 13:45:13;;;;;;;51.95;13.68;;;;;;;;;;5031495;28;20175;-48
2021/07/22 13:47:40;;;;;;;32.45;10.63;;;;;;;;;;5025035;28;20172;-48
2021/07/22 13:50:06;;;;;;;29.35;10.55;;;;;;;;;;5034853;28;20187;-48
2021/07/22 13:52:32;;;;;;;36.17;10.00;;;;;;;;;;5031965;28;20230;-45
2021/07/22 13:54:58;;;;;;;19.50;9.45;;;;;;;;;;5033970;28;20862;-45
2021/07/22 13:57:24;;;;;;;24.10;9.05;;;;;;;;;;5024806;28;20207;-46
2021/07/22 13:59:50;;;;;;;14.63;7.93;;;;;;;;;;5025232;28;20187;-45
2021/07/22 14:02:16;;;;;;;9.60;7.70;;;;;;;;;;5033319;28;20175;-48
2021/07/22 14:04:42;;;;;;;11.35;7.70;;;;;;;;;;5025664;28;20203;-48
2021/07/22 14:07:08;;;;;;;14.75;7.85;;;;;;;;;;5024911;28;20590;-48
2021/07/22 14:09:34;;;;;;;12.10;7.70;;;;;;;;;;5021695;28;20191;-48
2021/07/22 14:12:00;;;;;;;14.43;7.50;;;;;;;;;;5029323;28;20188;-48
2021/07/22 14:14:26;;;;;;;12.52;8.00;;;;;;;;;;5029712;28;20238;-48
2021/07/22 14:16:53;;;;;;;11.15;7.57;;;;;;;;;;5032432;28;20531;-48
2021/07/22 14:19:19;;;;;;;13.25;6.72;;;;;;;;;;5025380;28;20258;-48
2021/07/22 14:21:45;;;;;;;9.65;7.30;;;;;;;;;;5029524;28;20275;-48
2021/07/22 14:24:12;;;;;;;10.05;7.05;;;;;;;;;;5024690;28;20188;-48
2021/07/22 14:26:38;;;;;;;15.40;7.60;;;;;;;;;;5031008;28;20176;-48
2021/07/22 14:29:04;;;;;;;9.55;7.15;;;;;;;;;;5016430;28;20176;-48
2021/07/22 14:31:30;;;;;;;12.65;7.03;;;;;;;;;;5024269;28;20184;-48
2021/07/22 14:33:56;;;;;;;12.32;7.18;;;;;;;;;;5034985;28;20175;-46
2021/07/22 14:36:22;;;;;;;10.45;7.28;;;;;;;;;;5024477;28;20768;-46
2021/07/22 14:38:48;;;;;;;10.20;7.28;;;;;;;;;;5022221;28;20177;-46